Time;durP1;ratioP1;P1;durP2;ratioP2;P2;SDS_P1;SDS_P2;PMS_P1;PMS_P2;Temp;Humidity;BMP_temperature;BMP_pressure;BME280_temperature;BME280_humidity;BME280_pressure;Samples;Min_cycle;Max_cycle;Signal;HPM_P1;HPM_P2
2021/10/23 00:00:59;;;;;;;32.17;19.67;;;;;;;10.63;75.69;100384.91;5069886;28;20028;-20
2021/10/23 00:03:24;;;;;;;33.50;21.40;;;;;;;10.92;74.49;100410.22;5088301;28;20028;-20
2021/10/23 00:05:50;;;;;;;31.50;20.60;;;;;;;11.02;74.38;100404.44;5088412;28;20040;-20
2021/10/23 00:08:15;;;;;;;31.60;21.50;;;;;;;10.58;75.78;100392.72;5090713;28;20028;-19
2021/10/23 00:10:41;;;;;;;35.88;21.85;;;;;;;10.29;78.09;100405.50;5074147;28;20049;-19
2021/10/23 00:13:07;;;;;;;34.47;21.83;;;;;;;10.19;77.51;100383.78;5091687;28;20028;-20
2021/10/23 00:15:32;;;;;;;32.78;21.42;;;;;;;10.72;75.38;100399.63;5091885;28;20070;-19
2021/10/23 00:17:58;;;;;;;33.35;21.67;;;;;;;10.37;76.21;100397.28;5074363;28;20059;-20
2021/10/23 00:20:24;;;;;;;33.35;22.55;;;;;;;9.97;77.79;100376.03;5073688;28;20020;-20
2021/10/23 00:22:49;;;;;;;34.05;21.52;;;;;;;10.14;78.38;100402.25;5091334;28;20016;-22
2021/10/23 00:25:15;;;;;;;37.35;24.30;;;;;;;10.27;78.10;100396.88;5091958;28;20032;-20
2021/10/23 00:27:40;;;;;;;38.28;25.45;;;;;;;10.49;77.39;100386.00;5091601;28;20031;-20
2021/10/23 00:30:06;;;;;;;38.30;24.83;;;;;;;10.44;77.67;100381.28;5073458;28;20455;-20
2021/10/23 00:32:32;;;;;;;37.00;23.08;;;;;;;10.96;74.94;100390.09;5091685;28;20048;-19
2021/10/23 00:34:58;;;;;;;33.65;21.60;;;;;;;10.93;74.46;100395.88;5091365;28;20039;-20
2021/10/23 00:37:23;;;;;;;29.67;21.08;;;;;;;10.71;74.53;100367.88;5056540;28;20032;-19
2021/10/23 00:39:49;;;;;;;31.65;22.05;;;;;;;10.99;73.31;100394.19;5091513;28;20084;-19
2021/10/23 00:42:14;;;;;;;28.63;20.65;;;;;;;10.54;74.77;100386.16;5091558;28;20032;-20
2021/10/23 00:44:41;;;;;;;31.58;21.40;;;;;;;10.54;75.61;100400.34;5091410;28;20407;-20
2021/10/23 00:47:12;;;;;;;28.52;19.45;;;;;;;10.15;76.73;100393.22;5090920;28;20032;-20
2021/10/23 00:49:38;;;;;;;32.10;21.33;;;;;;;9.76;79.86;100368.25;5073370;28;20117;-20
2021/10/23 00:52:04;;;;;;;31.08;20.33;;;;;;;9.88;78.96;100371.13;5091353;28;20467;-20
2021/10/23 00:54:30;;;;;;;29.73;19.48;;;;;;;9.62;79.59;100368.28;5091078;28;20107;-20
2021/10/23 00:56:56;;;;;;;32.05;19.95;;;;;;;9.57;79.57;100391.22;5056136;28;20555;-19
2021/10/23 00:59:21;;;;;;;31.95;20.13;;;;;;;10.22;77.29;100372.72;5090765;28;20020;-20
2021/10/23 01:01:48;;;;;;;30.42;21.20;;;;;;;10.33;76.81;100365.94;5091165;28;20032;-19
2021/10/23 01:04:13;;;;;;;34.95;20.92;;;;;;;10.67;75.32;100375.47;5091038;28;20031;-19
2021/10/23 01:06:39;;;;;;;31.83;19.48;;;;;;;10.60;74.10;100366.66;5090847;28;20043;-20
2021/10/23 01:09:05;;;;;;;31.75;20.13;;;;;;;10.49;75.30;100388.66;5090727;28;20438;-20
2021/10/23 01:11:30;;;;;;;31.83;19.67;;;;;;;10.57;74.76;100385.75;5072876;28;20581;-19
2021/10/23 01:13:56;;;;;;;32.17;20.33;;;;;;;10.56;74.77;100347.63;5072511;28;20024;-20
2021/10/23 01:16:21;;;;;;;29.35;19.48;;;;;;;10.72;74.51;100364.97;5090895;28;20111;-20
2021/10/23 01:18:47;;;;;;;27.65;19.23;;;;;;;10.47;74.77;100364.06;5090788;28;20031;-20
2021/10/23 01:21:12;;;;;;;27.80;17.08;;;;;;;10.82;73.25;100383.19;5090373;28;20028;-19
2021/10/23 01:23:38;;;;;;;25.98;16.80;;;;;;;10.76;73.08;100376.84;5072454;28;20031;-19
2021/10/23 01:26:04;;;;;;;24.63;17.15;;;;;;;10.69;73.16;100357.41;5090532;28;20507;-19
2021/10/23 01:28:29;;;;;;;24.48;17.65;;;;;;;10.58;73.15;100360.72;5090413;28;20032;-20
2021/10/23 01:30:55;;;;;;;25.00;16.90;;;;;;;9.99;75.69;100368.66;5089945;28;20086;-19
2021/10/23 01:33:21;;;;;;;27.83;18.13;;;;;;;9.42;77.56;100351.47;5090514;28;20036;-19
2021/10/23 01:35:46;;;;;;;27.65;17.88;;;;;;;9.22;78.56;100362.91;5090731;28;20032;-20
2021/10/23 01:38:12;;;;;;;25.88;17.08;;;;;;;9.48;77.92;100361.31;5072256;28;20028;-20
2021/10/23 01:40:37;;;;;;;26.98;18.10;;;;;;;9.40;78.11;100366.84;5071875;28;20464;-20
2021/10/23 01:43:03;;;;;;;20.85;15.63;;;;;;;9.20;78.03;100370.28;5089808;28;20028;-20
2021/10/23 01:45:28;;;;;;;25.25;16.60;;;;;;;9.41;77.45;100374.59;5090162;28;20028;-20
2021/10/23 01:47:54;;;;;;;22.95;14.68;;;;;;;8.82;78.63;100367.31;5072166;28;20039;-20
2021/10/23 01:50:21;;;;;;;24.38;15.63;;;;;;;9.49;76.48;100372.78;5090206;28;20028;-21
2021/10/23 01:52:47;;;;;;;26.05;17.15;;;;;;;9.84;76.09;100365.38;5071811;28;20031;-20
2021/10/23 01:55:13;;;;;;;25.50;17.17;;;;;;;10.19;74.49;100367.78;5090113;28;20044;-20
2021/10/23 01:57:39;;;;;;;24.67;17.55;;;;;;;10.25;74.02;100382.94;5072475;28;20032;-19
2021/10/23 02:00:05;;;;;;;32.17;18.38;;;;;;;9.85;75.98;100375.03;5071861;28;20502;-21
2021/10/23 02:02:31;;;;;;;24.98;17.45;;;;;;;9.57;78.10;100376.06;5089594;28;20518;-20
2021/10/23 02:04:56;;;;;;;27.88;18.33;;;;;;;9.82;76.78;100380.75;5089227;28;20032;-20
2021/10/23 02:07:21;;;;;;;26.30;17.65;;;;;;;9.20;79.46;100386.25;5089832;28;20031;-20
2021/10/23 02:09:47;;;;;;;26.15;16.10;;;;;;;8.87;80.58;100380.00;5071966;28;20036;-20
2021/10/23 02:12:12;;;;;;;22.08;16.35;;;;;;;9.03;79.56;100384.97;5089583;28;20029;-23
2021/10/23 02:14:38;;;;;;;24.95;16.92;;;;;;;8.84;80.69;100382.06;5071705;28;20068;-20
2021/10/23 02:17:03;;;;;;;25.95;16.80;;;;;;;9.06;79.64;100384.59;5071263;28;20032;-20
2021/10/23 02:19:29;;;;;;;27.58;17.45;;;;;;;9.62;77.20;100381.59;5089410;28;20032;-20
2021/10/23 02:21:54;;;;;;;25.58;17.52;;;;;;;10.10;75.32;100369.06;5089589;28;20027;-20
2021/10/23 02:24:20;;;;;;;25.63;17.55;;;;;;;9.54;76.79;100384.47;5089407;28;20081;-20
2021/10/23 02:26:45;;;;;;;29.00;18.65;;;;;;;9.63;76.25;100359.25;5088988;28;20488;-20
2021/10/23 02:29:11;;;;;;;22.38;16.33;;;;;;;9.00;78.06;100366.75;5089362;28;20089;-20
2021/10/23 02:31:36;;;;;;;21.73;15.88;;;;;;;8.74;79.34;100368.31;5088935;28;20060;-20
2021/10/23 02:34:02;;;;;;;21.30;14.85;;;;;;;8.40;79.32;100359.38;5089189;28;20748;-19
2021/10/23 02:36:27;;;;;;;26.50;14.82;;;;;;;8.29;79.72;100359.91;5089174;28;20028;-20
2021/10/23 02:38:53;;;;;;;19.77;14.52;;;;;;;8.13;80.99;100371.69;5089067;28;20032;-20
2021/10/23 02:41:22;;;;;;;22.33;15.35;;;;;;;8.00;79.99;100340.53;5089016;28;20078;-20
2021/10/23 02:43:48;;;;;;;23.60;15.77;;;;;;;8.14;81.11;100369.84;5089460;28;20036;-20
2021/10/23 02:46:13;;;;;;;26.67;16.48;;;;;;;8.68;78.36;100358.47;5089360;28;20097;-19
2021/10/23 02:48:39;;;;;;;26.52;16.08;;;;;;;8.51;79.91;100376.59;5088857;28;20028;-20
2021/10/23 02:51:04;;;;;;;24.27;16.45;;;;;;;8.51;80.40;100387.25;5088998;28;20067;-20
2021/10/23 02:53:29;;;;;;;24.17;16.08;;;;;;;8.44;80.21;100389.88;5070813;28;20089;-19
2021/10/23 02:55:55;;;;;;;27.80;17.92;;;;;;;9.33;76.27;100389.94;5088969;28;20472;-20
2021/10/23 02:58:20;;;;;;;26.05;17.58;;;;;;;9.41;75.65;100387.09;5089165;28;20032;-20
2021/10/23 03:00:46;;;;;;;29.33;18.10;;;;;;;9.73;74.15;100390.81;5088620;28;20024;-20
2021/10/23 03:03:12;;;;;;;27.83;18.63;;;;;;;9.37;75.65;100397.31;5070615;28;20063;-20
2021/10/23 03:05:37;;;;;;;27.52;18.60;;;;;;;9.71;74.64;100392.03;5088951;28;20031;-20
2021/10/23 03:08:03;;;;;;;29.60;18.48;;;;;;;9.43;75.59;100379.72;5089115;28;20031;-19
2021/10/23 03:10:29;;;;;;;26.88;16.55;;;;;;;9.15;76.56;100394.00;5088926;28;20031;-20
2021/10/23 03:12:54;;;;;;;27.65;17.05;;;;;;;9.38;75.09;100401.63;5088986;28;20036;-21
2021/10/23 03:15:20;;;;;;;30.23;18.92;;;;;;;8.93;77.58;100392.50;5088948;28;20036;-20
2021/10/23 03:17:45;;;;;;;28.85;17.90;;;;;;;9.17;76.35;100389.28;5088972;28;20081;-20
2021/10/23 03:20:11;;;;;;;41.50;20.48;;;;;;;9.37;75.55;100394.66;5088924;28;20039;-20
2021/10/23 03:22:36;;;;;;;28.95;18.92;;;;;;;8.76;77.33;100392.88;5088904;28;20024;-20
2021/10/23 03:25:02;;;;;;;33.55;18.45;;;;;;;8.14;80.13;100385.78;5070511;28;20032;-20
2021/10/23 03:27:28;;;;;;;29.30;17.63;;;;;;;8.04;80.27;100383.47;5088695;28;20020;-20
2021/10/23 03:29:53;;;;;;;30.17;18.67;;;;;;;8.18;79.49;100397.66;5088626;28;20476;-19
2021/10/23 03:32:19;;;;;;;32.67;18.88;;;;;;;7.74;80.82;100381.00;5088501;28;20052;-20
2021/10/23 03:34:44;;;;;;;34.22;20.60;;;;;;;8.31;79.77;100397.72;5070472;28;20079;-19
2021/10/23 03:37:10;;;;;;;38.10;21.27;;;;;;;8.93;76.92;100403.16;5088412;28;20681;-20
2021/10/23 03:39:37;;;;;;;38.65;22.38;;;;;;;8.35;78.53;100393.66;5088719;28;20036;-19
2021/10/23 03:42:02;;;;;;;41.92;23.38;;;;;;;8.71;77.71;100389.19;5089355;28;20081;-19
2021/10/23 03:44:28;;;;;;;36.33;22.98;;;;;;;9.02;76.72;100383.34;5092473;28;20028;-19
2021/10/23 03:46:53;;;;;;;37.55;23.83;;;;;;;9.45;74.90;100401.63;5092154;28;20066;-20
2021/10/23 03:49:19;;;;;;;39.08;23.55;;;;;;;9.50;74.47;100399.19;5057604;28;20046;-21
2021/10/23 03:51:44;;;;;;;34.65;22.15;;;;;;;9.67;73.79;100396.94;5092571;28;20095;-21
2021/10/23 03:54:10;;;;;;;29.13;20.88;;;;;;;9.06;76.11;100408.53;5092447;28;20047;-20
2021/10/23 03:56:36;;;;;;;46.80;26.00;;;;;;;8.32;78.60;100404.69;5092596;28;20039;-20
2021/10/23 03:59:01;;;;;;;88.68;49.13;;;;;;;7.91;79.99;100386.06;5091954;28;20032;-20
2021/10/23 04:01:27;;;;;;;30.98;19.67;;;;;;;7.80;80.41;100405.97;5091929;28;20442;-20
2021/10/23 04:03:53;;;;;;;39.40;24.30;;;;;;;7.76;81.26;100400.22;5092113;28;20050;-20
2021/10/23 04:06:19;;;;;;;85.40;46.17;;;;;;;7.72;81.67;100409.56;5091945;28;20032;-20
2021/10/23 04:08:44;;;;;;;35.92;21.63;;;;;;;7.93;81.62;100414.06;5091923;28;20463;-23
2021/10/23 04:11:10;;;;;;;61.22;36.67;;;;;;;8.49;79.07;100415.03;5092165;28;20124;-20
2021/10/23 04:13:36;;;;;;;99.53;59.88;;;;;;;8.92;76.88;100418.28;5092053;28;20028;-20
2021/10/23 04:16:01;;;;;;;53.90;34.53;;;;;;;8.18;79.92;100387.03;5091795;28;20499;-19
2021/10/23 04:18:27;;;;;;;42.08;25.98;;;;;;;8.71;78.70;100424.56;5091871;28;20036;-20
2021/10/23 04:20:52;;;;;;;41.28;23.83;;;;;;;8.93;78.19;100413.78;5091656;28;20137;-20
2021/10/23 04:23:18;;;;;;;49.05;27.30;;;;;;;9.30;76.65;100417.81;5091677;28;20024;-20
2021/10/23 04:25:43;;;;;;;42.10;25.88;;;;;;;8.74;78.59;100416.16;5091793;28;20032;-22
2021/10/23 04:28:09;;;;;;;46.15;24.83;;;;;;;8.19;79.75;100364.75;5091864;28;20035;-19
2021/10/23 04:30:34;;;;;;;46.50;24.90;;;;;;;8.51;79.43;100418.31;5091237;28;20553;-20
2021/10/23 04:33:00;;;;;;;37.40;21.73;;;;;;;9.05;77.60;100414.84;5091505;28;20411;-20
2021/10/23 04:35:25;;;;;;;40.53;21.65;;;;;;;9.16;76.44;100408.97;5091629;28;20028;-20
2021/10/23 04:37:51;;;;;;;37.17;21.90;;;;;;;9.32;75.63;100415.75;5091507;28;20032;-20
2021/10/23 04:40:16;;;;;;;34.92;22.95;;;;;;;9.67;75.07;100420.09;5091331;28;20058;-20
2021/10/23 04:42:41;;;;;;;41.90;24.23;;;;;;;9.86;73.99;100416.63;5073364;28;20093;-20
2021/10/23 04:45:07;;;;;;;34.90;23.25;;;;;;;9.42;75.17;100412.72;5072913;28;20036;-20
2021/10/23 04:47:33;;;;;;;38.45;23.27;;;;;;;9.59;75.21;100421.94;5091291;28;20714;-19
2021/10/23 04:49:58;;;;;;;31.63;22.05;;;;;;;8.91;78.19;100434.44;5091409;28;20024;-20
2021/10/23 04:52:24;;;;;;;34.25;23.30;;;;;;;8.57;80.49;100433.50;5091055;28;20035;-21
2021/10/23 04:54:49;;;;;;;44.63;26.92;;;;;;;8.34;81.04;100433.75;5090303;28;20040;-19
2021/10/23 04:57:15;;;;;;;39.00;24.88;;;;;;;7.91;82.07;100416.06;5090696;28;20381;-19
2021/10/23 04:59:40;;;;;;;37.80;24.77;;;;;;;7.97;81.99;100420.63;5072865;28;20024;-21
2021/10/23 05:02:06;;;;;;;46.50;26.95;;;;;;;8.19;82.26;100441.81;5091135;28;20085;-20
2021/10/23 05:04:31;;;;;;;45.88;27.38;;;;;;;8.75;79.50;100435.63;5091073;28;20036;-19
2021/10/23 05:06:57;;;;;;;47.60;26.48;;;;;;;8.73;78.96;100432.34;5090642;28;20043;-19
2021/10/23 05:09:22;;;;;;;44.97;27.27;;;;;;;8.20;81.38;100435.50;5091011;28;20039;-20
2021/10/23 05:11:48;;;;;;;37.22;24.25;;;;;;;8.67;78.96;100444.59;5091393;28;20564;-19
2021/10/23 05:14:13;;;;;;;40.40;24.30;;;;;;;8.21;80.51;100442.44;5090814;28;20042;-21
2021/10/23 05:16:39;;;;;;;165.50;68.43;;;;;;;8.02;82.22;100460.69;5090520;28;20134;-20
2021/10/23 05:19:04;;;;;;;104.22;53.67;;;;;;;8.22;82.09;100462.69;5090396;28;20101;-20
2021/10/23 05:21:30;;;;;;;213.40;96.82;;;;;;;8.13;82.80;100461.16;5090335;28;20028;-20
2021/10/23 05:23:57;;;;;;;94.93;46.53;;;;;;;8.07;83.37;100469.91;5090582;28;20036;-20
2021/10/23 05:26:22;;;;;;;85.60;42.90;;;;;;;8.21;83.28;100463.69;5090554;28;20028;-20
2021/10/23 05:28:48;;;;;;;117.93;48.38;;;;;;;8.25;83.42;100464.94;5090313;28;20028;-20
2021/10/23 05:31:13;;;;;;;121.85;54.03;;;;;;;8.59;83.13;100479.31;5090683;28;20059;-20
2021/10/23 05:33:39;;;;;;;76.47;39.30;;;;;;;8.58;82.96;100485.63;5090319;28;20055;-19
2021/10/23 05:36:04;;;;;;;60.45;35.08;;;;;;;8.54;83.64;100487.88;5090432;28;20028;-20
2021/10/23 05:38:30;;;;;;;87.40;44.25;;;;;;;8.66;83.96;100490.78;5090566;28;20035;-20
2021/10/23 05:40:55;;;;;;;147.35;63.47;;;;;;;9.00;83.45;100505.91;5090043;28;20904;-20
2021/10/23 05:43:21;;;;;;;115.90;60.08;;;;;;;9.53;80.25;100513.25;5090113;28;20077;-22
2021/10/23 05:45:47;;;;;;;69.30;38.13;;;;;;;9.40;81.18;100510.59;5090017;28;20039;-21
2021/10/23 05:48:13;;;;;;;81.82;42.08;;;;;;;9.56;80.34;100510.22;5055702;28;20103;-21
2021/10/23 05:50:39;;;;;;;52.50;32.25;;;;;;;9.65;80.08;100522.31;5089944;28;20047;-21
2021/10/23 05:53:04;;;;;;;49.78;32.53;;;;;;;10.13;77.71;100526.66;5089474;28;20036;-20
2021/10/23 05:55:30;;;;;;;51.30;31.02;;;;;;;9.90;78.77;100505.75;5089868;28;20472;-21
2021/10/23 05:57:55;;;;;;;41.30;28.52;;;;;;;9.61;80.99;100525.59;5071844;28;20031;-20
2021/10/23 06:00:20;;;;;;;41.33;27.48;;;;;;;9.51;82.04;100514.50;5089493;28;20028;-20
2021/10/23 06:02:47;;;;;;;34.50;25.25;;;;;;;9.61;82.22;100530.91;5089605;28;20047;-21
2021/10/23 06:05:14;;;;;;;40.95;27.08;;;;;;;9.87;80.74;100527.50;5071156;28;20044;-21
2021/10/23 06:07:40;;;;;;;59.63;37.08;;;;;;;10.14;80.34;100536.31;5038289;28;20035;-20
2021/10/23 06:10:07;;;;;;;56.05;34.58;;;;;;;10.25;79.80;100513.56;5089417;28;20088;-21
2021/10/23 06:12:33;;;;;;;47.65;29.92;;;;;;;10.95;78.48;100547.75;5071675;28;20024;-20
2021/10/23 06:14:58;;;;;;;54.50;32.47;;;;;;;11.29;76.92;100538.59;5089283;28;20065;-21
2021/10/23 06:17:24;;;;;;;41.72;28.55;;;;;;;11.54;75.82;100541.34;5071512;28;20053;-21
2021/10/23 06:19:49;;;;;;;38.33;26.08;;;;;;;11.97;75.43;100561.28;5089374;28;20024;-21
2021/10/23 06:22:15;;;;;;;32.03;23.23;;;;;;;12.04;76.34;100562.06;5071641;28;20032;-20
2021/10/23 06:24:40;;;;;;;36.70;24.92;;;;;;;12.01;76.27;100563.31;5089639;28;20028;-20
2021/10/23 06:27:06;;;;;;;36.60;26.20;;;;;;;11.94;75.20;100535.81;5089308;28;20031;-21
2021/10/23 06:29:32;;;;;;;39.72;26.60;;;;;;;12.34;73.94;100556.91;5089618;28;20036;-20
2021/10/23 06:31:58;;;;;;;39.35;27.42;;;;;;;12.34;75.50;100556.91;5089431;28;20040;-20
2021/10/23 06:34:23;;;;;;;39.20;26.95;;;;;;;12.71;74.09;100569.53;5089350;28;20062;-21
2021/10/23 06:36:48;;;;;;;37.35;26.52;;;;;;;12.83;74.03;100576.63;5070635;28;20027;-21
2021/10/23 06:39:14;;;;;;;34.70;25.92;;;;;;;12.30;75.69;100577.09;5089396;28;20071;-20
2021/10/23 06:41:40;;;;;;;31.25;22.83;;;;;;;12.04;75.99;100575.44;5088941;28;20024;-21
2021/10/23 06:44:09;;;;;;;31.02;22.50;;;;;;;12.11;76.29;100576.19;5070814;28;20035;-20
2021/10/23 06:46:38;;;;;;;35.53;25.75;;;;;;;12.43;76.46;100565.47;5089344;28;20024;-20
2021/10/23 06:49:04;;;;;;;34.97;23.30;;;;;;;12.77;75.39;100577.53;5088874;28;20139;-20
2021/10/23 06:51:29;;;;;;;31.48;23.02;;;;;;;12.43;75.51;100571.63;5089174;28;20036;-20
2021/10/23 06:53:56;;;;;;;28.58;21.75;;;;;;;12.74;76.28;100569.91;5089161;28;20043;-20
2021/10/23 06:56:22;;;;;;;29.90;22.45;;;;;;;13.15;74.51;100576.50;5088932;28;20039;-21
2021/10/23 06:58:47;;;;;;;38.55;22.77;;;;;;;13.39;73.98;100569.44;5089194;28;20089;-20
2021/10/23 07:01:13;;;;;;;27.27;20.98;;;;;;;13.66;73.39;100567.22;5088922;28;20028;-20
2021/10/23 07:03:38;;;;;;;26.60;19.90;;;;;;;13.38;75.01;100567.81;5089042;28;20036;-26
2021/10/23 07:06:04;;;;;;;28.70;19.83;;;;;;;13.68;72.97;100569.69;5088898;28;20039;-20
2021/10/23 07:08:29;;;;;;;25.40;19.75;;;;;;;13.80;72.39;100570.56;5088928;28;20093;-20
2021/10/23 07:10:55;;;;;;;25.70;18.92;;;;;;;13.69;72.72;100573.19;5088890;28;20096;-21
2021/10/23 07:13:20;;;;;;;27.50;19.52;;;;;;;13.96;71.15;100569.09;5089099;28;20032;-21
2021/10/23 07:15:46;;;;;;;26.80;18.90;;;;;;;14.28;71.97;100576.84;5089038;28;20043;-20
2021/10/23 07:18:11;;;;;;;26.88;19.05;;;;;;;14.60;71.64;100587.31;5093021;28;20034;-21
2021/10/23 07:20:37;;;;;;;27.05;19.05;;;;;;;14.59;71.00;100578.47;5092837;28;20031;-20
2021/10/23 07:23:03;;;;;;;26.05;18.38;;;;;;;14.73;69.96;100576.38;5074635;28;20035;-20
2021/10/23 07:25:28;;;;;;;23.95;16.48;;;;;;;14.85;69.23;100579.88;5074587;28;20028;-20
2021/10/23 07:27:54;;;;;;;23.13;17.63;;;;;;;15.15;69.57;100570.81;5092811;28;20028;-20
2021/10/23 07:30:19;;;;;;;24.23;16.83;;;;;;;15.37;68.09;100573.69;5092787;28;20024;-20
2021/10/23 07:32:45;;;;;;;23.23;16.52;;;;;;;15.33;68.04;100564.47;5092431;28;20081;-23
2021/10/23 07:35:10;;;;;;;23.30;17.55;;;;;;;15.81;66.55;100589.34;5092881;28;20051;-20
2021/10/23 07:37:36;;;;;;;24.15;16.17;;;;;;;15.93;66.06;100586.59;5092715;28;20577;-20
2021/10/23 07:40:03;;;;;;;28.80;21.15;;;;;;;15.93;65.24;100584.72;5074499;28;20024;-20
2021/10/23 07:42:29;;;;;;;23.13;15.63;;;;;;;16.17;65.53;100596.19;5057220;28;20032;-20
2021/10/23 07:44:56;;;;;;;22.17;16.15;;;;;;;16.06;64.24;100597.88;5090036;28;20043;-20
2021/10/23 07:47:22;;;;;;;21.00;14.03;;;;;;;15.85;64.16;100585.09;5091490;28;20098;-21
2021/10/23 07:49:47;;;;;;;21.23;14.25;;;;;;;16.30;63.79;100595.03;5092049;28;20408;-20
2021/10/23 07:52:13;;;;;;;19.55;12.90;;;;;;;16.37;61.16;100601.09;5092582;28;20032;-20
2021/10/23 07:54:39;;;;;;;18.80;13.48;;;;;;;16.43;62.28;100575.88;5074350;28;20142;-20
2021/10/23 07:57:04;;;;;;;17.30;13.73;;;;;;;16.57;62.13;100602.47;5092322;28;20465;-20
2021/10/23 07:59:31;;;;;;;18.00;12.13;;;;;;;16.83;60.99;100595.63;5092192;28;20024;-20
2021/10/23 08:01:58;;;;;;;17.27;12.30;;;;;;;17.14;60.05;100607.66;5092123;28;20280;-20
2021/10/23 08:04:23;;;;;;;15.68;12.57;;;;;;;17.25;59.07;100604.00;5092029;28;20427;-19
2021/10/23 08:06:49;;;;;;;18.80;12.57;;;;;;;17.47;59.38;100600.53;5073736;28;20574;-20
2021/10/23 08:09:14;;;;;;;17.67;12.48;;;;;;;17.61;59.26;100596.38;5092012;28;20032;-20
2021/10/23 08:11:43;;;;;;;16.45;12.93;;;;;;;17.78;58.74;100595.47;5092028;28;20032;-20
2021/10/23 08:14:09;;;;;;;18.58;12.68;;;;;;;17.68;58.58;100593.47;5092270;28;20119;-20
2021/10/23 08:16:35;;;;;;;14.93;11.77;;;;;;;17.90;55.94;100581.84;5091985;28;20512;-20
2021/10/23 08:19:01;;;;;;;15.35;11.65;;;;;;;18.26;57.42;100591.09;5091647;28;20028;-20
2021/10/23 08:21:26;;;;;;;15.57;11.00;;;;;;;18.51;55.52;100586.97;5091872;28;20036;-20
2021/10/23 08:23:52;;;;;;;17.55;11.23;;;;;;;18.25;55.73;100600.28;5091728;28;20054;-20
2021/10/23 08:26:17;;;;;;;14.98;10.73;;;;;;;18.58;54.75;100601.06;5091767;28;20086;-20
2021/10/23 08:28:43;;;;;;;14.93;10.27;;;;;;;18.35;53.83;100597.66;5072577;28;20035;-20
2021/10/23 08:31:08;;;;;;;13.85;10.10;;;;;;;18.40;53.74;100575.28;5091280;28;20047;-20
2021/10/23 08:33:34;;;;;;;14.30;9.55;;;;;;;18.72;53.49;100599.53;5091640;28;20039;-20
2021/10/23 08:35:59;;;;;;;14.68;9.57;;;;;;;19.06;51.82;100604.63;5091902;28;20063;-20
2021/10/23 08:38:25;;;;;;;12.18;8.77;;;;;;;18.89;51.78;100577.78;5091763;28;20035;-22
2021/10/23 08:40:54;;;;;;;11.02;8.98;;;;;;;18.92;52.10;100598.91;5091611;28;20028;-21
2021/10/23 08:43:20;;;;;;;14.55;9.65;;;;;;;18.91;51.43;100597.25;5091421;28;20057;-21
2021/10/23 08:45:46;;;;;;;12.15;8.85;;;;;;;18.90;51.81;100589.41;5091346;28;20063;-21
2021/10/23 08:48:11;;;;;;;11.88;8.90;;;;;;;18.93;52.87;100595.09;5073509;28;20085;-20
2021/10/23 08:50:37;;;;;;;13.32;9.77;;;;;;;19.35;51.23;100593.41;5056893;28;20036;-20
2021/10/23 08:53:02;;;;;;;14.73;10.05;;;;;;;19.59;51.36;100591.88;5072867;28;20031;-20
2021/10/23 08:55:28;;;;;;;14.30;9.93;;;;;;;19.84;50.09;100591.16;5056573;28;20036;-20
2021/10/23 08:57:54;;;;;;;15.88;10.75;;;;;;;19.69;51.14;100601.91;5091266;28;20032;-20
2021/10/23 09:00:19;;;;;;;13.75;9.95;;;;;;;19.70;51.75;100591.94;5091124;28;20107;-20
2021/10/23 09:02:45;;;;;;;12.70;9.65;;;;;;;19.61;51.81;100588.91;5090798;28;20032;-23
2021/10/23 09:05:10;;;;;;;12.93;9.90;;;;;;;19.56;50.75;100597.81;5091202;28;20062;-20
2021/10/23 09:07:45;;;;;;;16.25;10.23;;;;;;;19.82;50.30;100589.81;5090838;28;20032;-21
2021/10/23 09:10:11;;;;;;;13.73;9.95;;;;;;;19.78;50.44;100572.50;5090905;28;20028;-20
2021/10/23 09:12:37;;;;;;;13.23;10.32;;;;;;;19.96;50.92;100574.69;5091148;28;20105;-20
2021/10/23 09:15:06;;;;;;;14.55;10.15;;;;;;;20.11;50.10;100587.41;5090473;28;20036;-20
2021/10/23 09:17:34;;;;;;;14.00;9.93;;;;;;;20.33;48.21;100589.88;5090678;28;20028;-20
2021/10/23 09:20:11;;;;;;;14.60;9.60;;;;;;;20.33;51.72;100587.16;5072787;28;20149;-20
2021/10/23 09:22:43;;;;;;;12.82;9.82;;;;;;;19.99;51.71;100584.16;5090868;28;20085;-20
2021/10/23 09:25:22;;;;;;;15.52;10.43;;;;;;;19.63;52.44;100587.56;5090214;28;20039;-20
2021/10/23 09:28:11;;;;;;;17.70;10.82;;;;;;;19.32;53.31;100570.41;5090800;28;20032;-21
2021/10/23 09:30:48;;;;;;;13.15;9.73;;;;;;;19.35;51.62;100555.53;5072526;28;20133;-20
2021/10/23 09:33:20;;;;;;;12.48;9.23;;;;;;;19.46;51.26;100576.97;5090547;28;20392;-20
2021/10/23 09:35:50;;;;;;;13.30;9.25;;;;;;;19.35;51.44;100566.38;5090669;28;20115;-20
2021/10/23 09:38:18;;;;;;;13.93;9.57;;;;;;;19.17;52.31;100571.19;5090736;28;20101;-21
2021/10/23 09:40:44;;;;;;;12.18;9.07;;;;;;;19.50;51.56;100561.03;5090070;28;20027;-20
2021/10/23 09:43:20;;;;;;;15.40;11.00;;;;;;;19.70;50.52;100559.47;5090087;28;20032;-21
2021/10/23 09:45:58;;;;;;;12.23;9.05;;;;;;;19.99;49.31;100568.72;5090369;28;20027;-20
2021/10/23 09:48:35;;;;;;;15.48;10.57;;;;;;;19.97;49.07;100553.84;5090623;28;20024;-20
2021/10/23 09:51:19;;;;;;;14.18;9.18;;;;;;;19.82;49.12;100558.16;5089911;28;20028;-20
2021/10/23 09:53:44;;;;;;;13.05;8.10;;;;;;;19.70;48.85;100564.88;5090023;28;20052;-20
2021/10/23 09:56:12;;;;;;;11.52;8.60;;;;;;;19.85;48.40;100551.38;5090015;28;20028;-20
2021/10/23 09:58:37;;;;;;;11.80;9.15;;;;;;;20.16;50.01;100556.81;5072009;28;20032;-20
2021/10/23 10:01:03;;;;;;;13.50;9.57;;;;;;;20.05;49.04;100562.22;5089448;28;20028;-19
2021/10/23 10:03:29;;;;;;;11.98;9.43;;;;;;;19.77;47.86;100550.00;5055169;28;20036;-21
2021/10/23 10:05:58;;;;;;;12.18;9.43;;;;;;;19.77;50.94;100538.38;5090118;28;20028;-22
2021/10/23 10:08:24;;;;;;;21.63;9.98;;;;;;;19.90;50.15;100551.41;5089750;28;20078;-20
2021/10/23 10:10:50;;;;;;;13.73;9.63;;;;;;;20.05;48.39;100550.59;5089761;28;20444;-21
2021/10/23 10:13:23;;;;;;;13.77;8.77;;;;;;;20.39;47.60;100561.69;5071687;28;20032;-22
2021/10/23 10:15:54;;;;;;;11.50;8.65;;;;;;;20.51;47.62;100552.47;5089892;28;20110;-21
2021/10/23 10:18:21;;;;;;;11.55;8.77;;;;;;;20.64;48.79;100562.78;5089864;28;20028;-20
2021/10/23 10:20:51;;;;;;;11.57;8.57;;;;;;;20.44;48.37;100556.25;5089223;28;20020;-21
2021/10/23 10:23:18;;;;;;;12.70;9.77;;;;;;;20.42;49.50;100539.47;5090012;28;20036;-21
2021/10/23 10:25:44;;;;;;;14.05;9.55;;;;;;;20.42;49.61;100544.06;5071491;28;20053;-20
2021/10/23 10:28:13;;;;;;;10.05;7.47;;;;;;;20.09;46.86;100540.03;5089382;28;20503;-20
2021/10/23 10:30:41;;;;;;;11.07;8.35;;;;;;;20.46;47.52;100535.13;5089185;28;20036;-20
2021/10/23 10:33:21;;;;;;;11.82;8.48;;;;;;;21.06;47.30;100546.13;5089090;28;20063;-20
2021/10/23 10:38:59;;;;;;;13.98;9.35;;;;;;;21.53;45.18;100546.72;5076386;28;20525;-20
2021/10/23 10:44:15;;;;;;;14.07;9.68;;;;;;;22.03;43.91;100539.34;5071306;28;20035;-21
2021/10/23 10:47:06;;;;;;;10.15;7.55;;;;;;;22.11;42.90;100546.06;5071674;28;20028;-20
2021/10/23 10:49:53;;;;;;;12.90;8.75;;;;;;;22.41;42.06;100555.06;5089203;28;20483;-20
2021/10/23 10:52:40;;;;;;;11.60;8.30;;;;;;;22.21;42.17;100545.16;5088782;28;20032;-21
2021/10/23 10:55:16;;;;;;;10.38;7.82;;;;;;;21.84;43.89;100541.09;5088620;28;20079;-20
2021/10/23 10:58:01;;;;;;;12.00;8.60;;;;;;;21.59;45.49;100534.75;5089220;28;20059;-20
2021/10/23 11:01:02;;;;;;;12.43;8.45;;;;;;;21.76;44.00;100544.41;5088763;28;20024;-20
2021/10/23 11:04:02;;;;;;;11.25;8.65;;;;;;;21.83;43.10;100539.50;5077508;28;20058;-20
2021/10/23 11:06:34;;;;;;;11.52;8.02;;;;;;;22.02;43.47;100534.97;5085501;28;20059;-22
2021/10/23 11:09:12;;;;;;;12.35;9.18;;;;;;;21.70;45.00;100540.09;5088858;28;20529;-20
2021/10/23 11:11:46;;;;;;;12.88;9.70;;;;;;;21.80;45.42;100545.47;5089404;28;20532;-20
2021/10/23 11:14:24;;;;;;;12.80;9.25;;;;;;;21.76;44.55;100538.97;5089288;28;20475;-21
2021/10/23 11:16:56;;;;;;;12.05;9.77;;;;;;;21.62;45.36;100539.63;5088423;28;20471;-20
2021/10/23 11:19:42;;;;;;;13.57;9.40;;;;;;;21.47;45.08;100526.13;5088787;28;20036;-20